Time;durP1;ratioP1;P1;durP2;ratioP2;P2;SDS_P1;SDS_P2;PMS_P1;PMS_P2;Temp;Humidity;BMP_temperature;BMP_pressure;BME280_temperature;BME280_humidity;BME280_pressure;Samples;Min_cycle;Max_cycle;Signal;HPM_P1;HPM_P2
2022/08/21 00:01:21;;;;;;;0.90;0.90;;;;;;;17.39;86.35;94166.97;4919749;29;20230;-95
2022/08/21 00:04:07;;;;;;;1.90;1.20;;;;;;;17.44;86.71;94170.72;4892792;29;20207;-95
2022/08/21 00:06:52;;;;;;;1.93;1.27;;;;;;;17.39;87.36;94169.06;4916641;29;20227;-94
2022/08/21 00:09:37;;;;;;;3.23;1.20;;;;;;;17.06;89.27;94163.84;4909390;29;20258;-95
2022/08/21 00:12:22;;;;;;;1.60;1.20;;;;;;;17.12;89.14;94166.97;4879105;29;20630;-95
2022/08/21 00:15:08;;;;;;;1.13;1.03;;;;;;;17.11;88.85;94164.78;4900320;29;20207;-94
2022/08/21 00:17:58;;;;;;;4.33;1.30;;;;;;;17.21;87.40;94157.53;4895828;29;20223;-95
2022/08/21 00:20:53;;;;;;;1.90;0.90;;;;;;;17.24;87.00;94159.09;4911923;29;20219;-94
2022/08/21 00:23:43;;;;;;;1.90;1.10;;;;;;;17.24;86.85;94155.53;4904270;29;20210;-94
2022/08/21 00:26:27;;;;;;;1.30;1.00;;;;;;;17.37;85.64;94158.34;4904535;29;20244;-93
2022/08/21 00:29:13;;;;;;;1.37;1.27;;;;;;;17.21;86.27;94156.81;4916249;29;20460;-95
2022/08/21 00:32:03;;;;;;;0.90;0.90;;;;;;;17.31;84.72;94143.88;4909262;29;20281;-93
2022/08/21 07:34:49;;;;;;;2.05;1.55;;;;;;;20.83;66.73;94110.06;4949500;28;20225;-92
2022/08/21 07:37:33;;;;;;;3.97;1.60;;;;;;;20.39;68.33;94116.97;4940282;29;20885;-94
2022/08/21 07:40:18;;;;;;;2.58;1.33;;;;;;;20.91;67.08;94112.50;4922277;29;20694;-95
2022/08/21 07:43:03;;;;;;;4.53;1.50;;;;;;;20.93;66.96;94109.69;4935201;28;20206;-94
2022/08/21 07:45:53;;;;;;;2.28;1.30;;;;;;;21.07;67.24;94103.78;4951623;28;20210;-95
2022/08/21 07:48:38;;;;;;;2.47;1.17;;;;;;;21.06;65.80;94111.59;4941307;29;20202;-95
2022/08/21 07:51:26;;;;;;;3.80;1.45;;;;;;;20.79;67.29;94112.06;4946521;29;20198;-96
2022/08/21 07:54:11;;;;;;;2.22;1.20;;;;;;;21.28;66.89;94109.56;4956547;28;20216;-92
2022/08/21 07:56:56;;;;;;;2.20;1.45;;;;;;;21.57;64.96;94104.78;4938047;29;20216;-96
2022/08/21 07:59:42;;;;;;;2.42;1.60;;;;;;;22.01;63.37;94100.56;4943450;29;20678;-95
2022/08/21 08:02:29;;;;;;;1.45;1.35;;;;;;;20.90;64.64;94111.03;4937766;28;20488;-95
2022/08/21 08:05:13;;;;;;;2.50;1.33;;;;;;;21.51;64.54;94101.75;4925773;28;20645;-93
2022/08/21 08:07:58;;;;;;;4.60;1.50;;;;;;;21.85;64.23;94105.00;4927801;28;20206;-94
2022/08/21 08:10:43;;;;;;;2.72;1.58;;;;;;;22.09;62.72;94102.94;4941070;29;20194;-94
2022/08/21 08:13:28;;;;;;;2.88;1.38;;;;;;;22.64;63.07;94104.59;4925046;28;20219;-95
2022/08/21 08:16:13;;;;;;;3.17;1.23;;;;;;;22.40;62.55;94101.75;4936815;29;20199;-93
2022/08/21 08:18:57;;;;;;;1.40;1.10;;;;;;;22.09;63.08;94103.69;4920970;29;20202;-94
2022/08/21 08:21:41;;;;;;;4.65;1.30;;;;;;;21.98;63.72;94106.84;4925069;29;20246;-93
2022/08/21 08:24:27;;;;;;;3.75;1.40;;;;;;;21.62;62.91;94107.13;4918870;29;20218;-94
2022/08/21 08:27:11;;;;;;;4.65;1.60;;;;;;;22.72;61.42;94114.13;4911362;29;20238;-95
2022/08/21 08:29:55;;;;;;;2.65;1.45;;;;;;;22.45;61.75;94101.19;4922774;29;20213;-96
2022/08/21 08:32:40;;;;;;;4.22;1.60;;;;;;;22.93;60.28;94106.88;4907946;29;20209;-95
2022/08/21 08:35:28;;;;;;;2.50;1.17;;;;;;;23.23;60.13;94098.38;4920769;29;20210;-95
2022/08/21 08:38:15;;;;;;;2.53;1.50;;;;;;;23.01;58.49;94094.94;4930234;29;20654;-93
2022/08/21 08:41:14;;;;;;;3.35;1.20;;;;;;;23.12;56.87;94097.41;4946139;29;20222;-91
2022/08/21 08:44:03;;;;;;;3.20;1.58;;;;;;;22.81;55.11;94095.84;4926645;29;20194;-96
2022/08/21 08:46:51;;;;;;;2.92;1.40;;;;;;;23.66;55.30;94097.38;4916430;29;20315;-93
2022/08/21 08:49:42;;;;;;;1.83;1.40;;;;;;;23.02;54.41;94090.69;4919639;29;20213;-90
2022/08/21 08:52:57;;;;;;;5.07;1.67;;;;;;;24.07;52.35;94101.97;4917187;29;20225;-94
2022/08/21 08:55:44;;;;;;;3.83;1.23;;;;;;;23.70;53.90;94095.34;4918068;29;20238;-93
2022/08/21 08:58:34;;;;;;;2.95;1.52;;;;;;;22.65;53.21;94100.34;4923207;29;20202;-94
2022/08/21 09:01:19;;;;;;;4.32;1.52;;;;;;;24.02;52.13;94098.28;4938189;29;20237;-95
2022/08/21 09:04:04;;;;;;;2.50;1.40;;;;;;;23.66;53.49;94100.97;4930132;29;20213;-95
2022/08/21 09:06:48;;;;;;;2.75;1.45;;;;;;;23.79;53.95;94104.88;4903825;29;20230;-95
2022/08/21 09:09:59;;;;;;;8.02;1.67;;;;;;;23.42;52.85;94091.75;4908237;29;20289;-92
2022/08/21 09:13:03;;;;;;;2.92;1.48;;;;;;;23.43;52.10;94098.19;4901501;29;20243;-93
2022/08/21 09:16:05;;;;;;;4.05;1.50;;;;;;;24.03;50.15;94099.72;4925160;29;20269;-94
2022/08/21 09:19:08;;;;;;;1.75;1.40;;;;;;;24.06;49.45;94091.94;4917875;29;20285;-95
2022/08/21 09:22:13;;;;;;;1.85;1.40;;;;;;;23.59;49.28;94099.38;4941258;29;20218;-96
2022/08/21 09:25:27;;;;;;;2.05;1.70;;;;;;;23.78;51.35;94098.41;4921298;29;20743;-94
2022/08/21 09:28:14;;;;;;;2.50;1.55;;;;;;;24.18;50.99;94090.09;4907190;29;20202;-94
2022/08/21 09:31:02;;;;;;;4.57;1.50;;;;;;;25.02;48.01;94091.88;4953679;28;20269;-95
2022/08/21 09:33:46;;;;;;;2.38;1.42;;;;;;;25.06;47.35;94086.94;4912190;29;20206;-95
2022/08/21 09:36:45;;;;;;;3.80;1.90;;;;;;;24.87;47.74;94090.88;4955730;28;20265;-94
2022/08/21 09:39:37;;;;;;;3.00;1.90;;;;;;;25.01;47.33;94085.44;4918071;29;20218;-95
2022/08/21 09:42:31;;;;;;;4.50;1.70;;;;;;;25.37;47.35;94091.84;4918329;29;20285;-93
2022/08/21 09:45:18;;;;;;;2.95;2.38;;;;;;;25.37;45.74;94073.91;4932649;29;20691;-95
2022/08/21 09:48:14;;;;;;;2.85;2.20;;;;;;;25.32;46.43;94081.00;4914828;29;20292;-93
2022/08/21 09:51:08;;;;;;;2.75;2.35;;;;;;;24.96;47.29;94081.03;4920267;29;20210;-94
2022/08/21 09:54:03;;;;;;;3.10;2.33;;;;;;;25.81;45.88;94079.72;4914403;29;20217;-95
2022/08/21 10:00:38;;;;;;;3.90;2.10;;;;;;;25.57;45.39;94073.56;4929708;29;20222;-93
2022/08/21 10:03:24;;;;;;;3.00;2.20;;;;;;;26.23;45.17;94070.34;4908916;29;20282;-93
2022/08/21 10:06:10;;;;;;;3.28;2.60;;;;;;;25.55;44.29;94076.41;4922248;29;20213;-94
2022/08/21 10:09:16;;;;;;;3.97;2.67;;;;;;;25.86;43.98;94069.75;4922387;29;20210;-93
2022/08/21 10:12:13;;;;;;;3.75;2.90;;;;;;;26.13;45.58;94074.50;4907560;29;20764;-91
2022/08/21 10:15:09;;;;;;;2.78;2.53;;;;;;;26.02;44.43;94070.03;4933645;29;20263;-92
2022/08/21 10:18:01;;;;;;;6.53;2.65;;;;;;;27.21;43.72;94068.09;4926719;28;20267;-90
2022/08/21 10:21:18;;;;;;;3.53;2.67;;;;;;;24.86;47.01;94063.59;4942387;29;20278;-92
2022/08/21 10:24:29;;;;;;;3.45;2.30;;;;;;;25.44;44.82;94066.13;4928973;29;20257;-91
2022/08/21 10:27:51;;;;;;;2.70;2.50;;;;;;;26.49;43.55;94062.09;4942222;28;20329;-89
2022/08/21 10:30:52;;;;;;;3.97;2.42;;;;;;;25.68;45.57;94052.25;4931861;29;20293;-93
2022/08/21 10:33:51;;;;;;;3.45;3.15;;;;;;;25.94;44.55;94057.69;4923459;29;20550;-94
2022/08/21 10:36:42;;;;;;;5.30;2.60;;;;;;;26.59;42.58;94065.13;4924441;29;20206;-92
2022/08/21 10:40:13;;;;;;;4.75;2.28;;;;;;;26.79;40.49;94061.78;4916194;29;20202;-91
2022/08/21 10:43:03;;;;;;;2.47;2.17;;;;;;;27.51;40.28;94064.06;4917778;29;20221;-94
2022/08/21 10:46:17;;;;;;;3.58;2.53;;;;;;;27.27;41.36;94058.78;4908228;29;20309;-91
2022/08/21 10:49:16;;;;;;;3.83;3.33;;;;;;;26.67;41.40;94059.47;4913492;29;20202;-92
2022/08/21 10:52:21;;;;;;;4.82;2.30;;;;;;;25.09;43.54;94056.19;4901250;29;20269;-91
2022/08/21 10:55:40;;;;;;;3.05;2.20;;;;;;;25.68;43.71;94052.25;4919032;29;20228;-91
2022/08/21 10:58:39;;;;;;;3.75;2.80;;;;;;;26.11;44.14;94057.22;4913451;29;20305;-90
2022/08/21 11:01:31;;;;;;;3.05;2.47;;;;;;;26.70;43.84;94051.63;4921052;29;20226;-92
2022/08/21 11:04:32;;;;;;;4.03;2.42;;;;;;;26.56;44.25;94043.53;4909289;29;20772;-92
2022/08/21 11:07:27;;;;;;;2.55;2.38;;;;;;;25.88;45.68;94037.50;4905867;29;20245;-94
2022/08/21 11:10:26;;;;;;;4.97;2.55;;;;;;;26.51;43.90;94042.75;4932662;29;20179;-92
2022/08/21 11:13:16;;;;;;;4.72;2.30;;;;;;;26.98;41.20;94046.94;4930680;29;20210;-93
2022/08/21 11:16:07;;;;;;;2.70;1.80;;;;;;;27.84;39.39;94036.28;4929794;29;20289;-92
2022/08/21 11:19:30;;;;;;;2.15;1.95;;;;;;;27.49;38.71;94038.84;4923346;28;20202;-93
2022/08/21 11:22:43;;;;;;;2.90;1.92;;;;;;;27.13;37.51;94041.38;4956740;28;20195;-95
2022/08/21 11:25:34;;;;;;;1.95;1.80;;;;;;;26.09;40.83;94034.25;4937962;29;20203;-92
2022/08/21 11:28:38;;;;;;;2.17;1.88;;;;;;;25.27;41.47;94033.56;4940310;29;20275;-91
2022/08/21 11:31:37;;;;;;;2.60;1.95;;;;;;;26.08;38.83;94026.31;4923222;29;20201;-91
2022/08/21 11:34:41;;;;;;;4.43;2.10;;;;;;;26.45;41.01;94033.31;4934540;29;20218;-91
2022/08/21 11:37:53;;;;;;;2.00;1.60;;;;;;;26.87;38.52;94033.84;4923136;29;20198;-91
2022/08/21 11:41:02;;;;;;;3.40;1.70;;;;;;;28.02;34.80;94027.81;4913546;29;20708;-89
2022/08/21 11:44:24;;;;;;;4.75;1.83;;;;;;;28.04;36.89;94019.88;4920808;29;20697;-93
2022/08/21 11:47:39;;;;;;;3.88;2.00;;;;;;;27.39;38.61;94027.25;4910084;29;20209;-91
2022/08/21 11:50:30;;;;;;;2.15;1.70;;;;;;;27.80;33.83;94024.75;4910357;29;20225;-92
2022/08/21 11:53:34;;;;;;;2.47;1.70;;;;;;;27.95;32.96;94024.16;4905417;29;20235;-89
2022/08/21 11:56:25;;;;;;;4.25;2.13;;;;;;;27.58;34.75;94020.25;4933176;29;20285;-92
2022/08/21 11:59:21;;;;;;;2.30;2.10;;;;;;;27.35;36.18;94019.28;4924396;29;20465;-93
2022/08/21 12:02:13;;;;;;;6.82;1.70;;;;;;;27.67;35.77;94018.88;4908245;29;20304;-92
2022/08/21 12:05:05;;;;;;;5.57;2.15;;;;;;;28.03;35.10;94018.44;4924533;29;20246;-91
2022/08/21 12:08:04;;;;;;;2.78;1.80;;;;;;;27.32;36.76;94014.22;4932935;29;20294;-91
2022/08/21 12:11:01;;;;;;;2.10;1.60;;;;;;;27.04;37.12;94011.03;4908688;29;20213;-91
2022/08/21 12:13:58;;;;;;;3.55;1.92;;;;;;;27.11;37.03;94001.06;4926277;29;20277;-91
2022/08/21 12:16:47;;;;;;;2.25;2.05;;;;;;;26.90;36.18;93997.97;4919334;29;20265;-90
2022/08/21 12:19:32;;;;;;;1.70;1.60;;;;;;;27.14;37.25;93993.91;4921936;29;20199;-93
2022/08/21 12:22:15;;;;;;;3.83;2.20;;;;;;;26.98;35.80;93995.19;4922229;29;20229;-92
2022/08/21 12:25:07;;;;;;;2.72;2.00;;;;;;;26.80;37.22;93994.94;4919509;29;20293;-93
2022/08/21 12:28:06;;;;;;;1.90;1.80;;;;;;;28.11;35.10;93988.97;4904947;29;20242;-92
2022/08/21 12:30:52;;;;;;;2.35;2.15;;;;;;;27.68;34.11;93982.91;4920482;29;20264;-92
2022/08/21 12:33:40;;;;;;;1.75;1.60;;;;;;;27.47;34.89;93992.03;4920006;29;20202;-92
2022/08/21 12:36:43;;;;;;;2.40;1.63;;;;;;;27.60;33.95;93997.22;4927055;29;20667;-93
2022/08/21 12:39:31;;;;;;;4.07;2.00;;;;;;;27.44;36.54;93985.56;4925661;29;20207;-92
2022/08/21 12:42:21;;;;;;;3.83;1.95;;;;;;;26.86;37.72;93988.53;4922914;29;20218;-91
2022/08/21 12:45:27;;;;;;;2.83;1.88;;;;;;;27.30;34.42;93973.91;4918269;29;20206;-93
2022/08/21 12:48:24;;;;;;;1.60;1.50;;;;;;;27.07;34.67;93978.00;4926143;29;20217;-94
2022/08/21 12:51:14;;;;;;;1.92;1.60;;;;;;;26.48;36.02;93974.44;4927945;29;20194;-95
2022/08/21 12:54:01;;;;;;;1.80;1.70;;;;;;;27.29;35.65;93963.84;4930474;29;20213;-95
2022/08/21 12:57:03;;;;;;;2.35;1.95;;;;;;;26.31;34.74;93961.28;4912768;29;20226;-94
2022/08/21 12:59:52;;;;;;;8.25;2.03;;;;;;;27.19;34.29;93958.00;4935083;29;20254;-93
2022/08/21 13:02:42;;;;;;;2.75;1.67;;;;;;;27.11;35.84;93955.03;4920202;29;20210;-92
2022/08/21 13:05:29;;;;;;;3.30;1.38;;;;;;;27.84;34.02;93956.38;4914523;29;20217;-93
2022/08/21 13:08:14;;;;;;;2.95;1.80;;;;;;;28.48;32.53;93956.06;4916731;29;20206;-92
2022/08/21 13:11:03;;;;;;;2.55;1.92;;;;;;;26.93;36.08;93964.94;4943089;29;20278;-93
2022/08/21 13:13:51;;;;;;;1.52;1.42;;;;;;;26.24;36.79;93954.75;4956609;28;20221;-92
2022/08/21 13:16:36;;;;;;;5.13;1.83;;;;;;;27.00;36.14;93950.59;4927830;29;20747;-94
2022/08/21 13:19:21;;;;;;;2.85;1.90;;;;;;;27.13;35.91;93952.19;4922468;29;20220;-93
2022/08/21 13:22:12;;;;;;;2.33;1.73;;;;;;;27.71;37.17;93949.81;4921306;29;20696;-92
2022/08/21 13:24:58;;;;;;;4.20;1.70;;;;;;;27.20;35.47;93947.94;4918325;29;20207;-92
2022/08/21 13:27:47;;;;;;;1.92;1.73;;;;;;;27.32;36.73;93945.16;4934827;29;20207;-92
2022/08/21 13:30:32;;;;;;;2.00;1.90;;;;;;;26.92;35.75;93946.22;4923647;29;20648;-92
2022/08/21 13:33:21;;;;;;;1.83;1.70;;;;;;;27.35;35.84;93944.47;4918320;29;20195;-92
2022/08/21 13:36:11;;;;;;;2.33;1.77;;;;;;;26.75;34.87;93938.09;4914436;29;20249;-93
2022/08/21 13:38:56;;;;;;;2.80;1.70;;;;;;;26.90;35.04;93931.84;4912853;29;20726;-95
2022/08/21 13:41:43;;;;;;;2.83;1.58;;;;;;;27.49;34.66;93934.50;4921133;29;20260;-94
2022/08/21 13:44:30;;;;;;;3.55;1.63;;;;;;;27.29;35.88;93929.31;4930662;29;20332;-92
2022/08/21 13:47:16;;;;;;;1.50;1.40;;;;;;;27.50;33.90;93928.03;4922124;29;20225;-93
2022/08/21 13:50:01;;;;;;;2.22;1.80;;;;;;;27.58;34.40;93931.03;4906885;29;20707;-94
2022/08/21 13:53:28;;;;;;;2.63;1.73;;;;;;;28.08;34.43;93927.00;4935155;29;20229;-92
2022/08/21 13:56:22;;;;;;;3.70;1.70;;;;;;;27.29;35.40;93929.31;4920159;29;20280;-96
2022/08/21 13:59:07;;;;;;;2.63;1.73;;;;;;;27.06;37.21;93924.78;4922087;29;20225;-96
2022/08/21 14:02:07;;;;;;;1.98;1.40;;;;;;;27.92;34.40;93932.66;4917110;29;20235;-93
2022/08/21 14:04:58;;;;;;;3.88;2.08;;;;;;;27.47;33.81;93932.31;4900853;29;20215;-92
2022/08/21 14:07:44;;;;;;;3.55;1.60;;;;;;;28.03;32.47;93931.28;4923539;29;20199;-94
2022/08/21 14:10:30;;;;;;;2.10;1.70;;;;;;;27.37;33.05;93929.38;4922600;29;20486;-93
2022/08/21 14:13:38;;;;;;;2.10;1.90;;;;;;;27.68;33.47;93928.19;4913556;29;20298;-94
2022/08/21 14:16:41;;;;;;;4.18;1.63;;;;;;;28.22;33.53;93920.59;4935996;29;20214;-92
2022/08/21 14:19:37;;;;;;;2.70;1.60;;;;;;;28.47;29.16;93931.53;4921690;29;20210;-94
2022/08/21 14:22:27;;;;;;;3.75;2.10;;;;;;;27.90;31.54;93929.78;4907694;29;20222;-95
2022/08/21 14:25:15;;;;;;;3.08;1.40;;;;;;;28.13;32.08;93928.47;4925841;29;20206;-95
2022/08/21 14:28:26;;;;;;;2.53;1.98;;;;;;;27.61;33.87;93923.09;4923813;29;20230;-95
2022/08/21 14:31:21;;;;;;;2.42;1.90;;;;;;;26.32;35.40;93923.25;4938466;29;20279;-90
2022/08/21 14:34:07;;;;;;;2.50;1.67;;;;;;;26.62;36.86;93925.75;4929743;29;20211;-94
2022/08/21 14:36:54;;;;;;;6.63;2.13;;;;;;;26.85;35.85;93921.69;4913822;29;20286;-96
2022/08/21 14:39:38;;;;;;;2.65;1.95;;;;;;;27.12;36.24;93914.06;4922067;29;20207;-96
2022/08/21 14:42:23;;;;;;;2.22;1.88;;;;;;;26.76;36.26;93911.53;4916356;29;20270;-93
2022/08/21 14:45:28;;;;;;;3.25;1.83;;;;;;;27.26;36.41;93913.47;4923070;29;20210;-95
2022/08/21 14:48:12;;;;;;;2.20;1.67;;;;;;;27.21;36.24;93917.75;4923533;29;20225;-91
2022/08/21 14:50:56;;;;;;;3.67;1.60;;;;;;;26.70;38.67;93908.59;4911281;29;20704;-95
2022/08/21 14:53:41;;;;;;;3.30;1.80;;;;;;;27.26;36.42;93908.44;4921358;29;20202;-95
2022/08/21 14:56:25;;;;;;;2.17;1.92;;;;;;;26.73;37.62;93907.19;4944277;28;20278;-96
2022/08/21 14:59:11;;;;;;;2.33;1.60;;;;;;;26.49;37.08;93901.91;4959568;28;20209;-95
2022/08/21 15:01:57;;;;;;;2.08;1.77;;;;;;;27.18;37.51;93901.88;4955245;28;20313;-93
2022/08/21 15:04:43;;;;;;;1.92;1.67;;;;;;;26.82;37.46;93902.25;4956645;29;20194;-92
2022/08/21 15:07:27;;;;;;;2.63;1.67;;;;;;;27.19;37.01;93900.44;4919480;29;20199;-96
2022/08/21 15:10:12;;;;;;;2.08;1.70;;;;;;;27.55;36.86;93909.41;4926272;29;20289;-94
2022/08/21 15:12:56;;;;;;;4.38;1.98;;;;;;;26.84;39.15;93905.16;4911137;29;20214;-95
2022/08/21 15:15:44;;;;;;;2.25;1.70;;;;;;;26.32;37.38;93905.28;4916597;29;20215;-92
2022/08/21 15:18:30;;;;;;;3.25;2.20;;;;;;;26.63;37.92;93909.94;4919402;29;20301;-96
2022/08/21 15:21:14;;;;;;;3.22;1.92;;;;;;;26.50;37.89;93903.34;4913544;29;20210;-96
2022/08/21 15:23:59;;;;;;;1.83;1.60;;;;;;;26.61;37.85;93907.06;4925492;29;20210;-96
2022/08/21 15:26:45;;;;;;;3.03;1.83;;;;;;;26.54;37.59;93902.66;4911905;29;20210;-96
2022/08/21 15:29:31;;;;;;;3.17;1.77;;;;;;;25.95;37.56;93898.34;4912373;29;20213;-92
2022/08/21 15:32:24;;;;;;;2.25;1.77;;;;;;;26.25;37.95;93900.88;4917199;29;20198;-96
2022/08/21 15:35:11;;;;;;;3.08;2.10;;;;;;;26.58;37.37;93902.72;4925532;29;20214;-96
2022/08/21 15:37:55;;;;;;;2.03;1.88;;;;;;;26.67;39.09;93904.25;4909744;29;20281;-96
2022/08/21 15:40:42;;;;;;;2.17;1.77;;;;;;;26.04;39.94;93900.63;4913883;29;20719;-96
2022/08/21 15:43:29;;;;;;;5.15;2.00;;;;;;;26.49;39.17;93889.69;4927088;29;20214;-96
2022/08/21 15:46:19;;;;;;;3.63;2.00;;;;;;;26.24;38.84;93893.69;4912775;29;20203;-96
2022/08/21 15:49:04;;;;;;;2.30;2.10;;;;;;;26.68;39.69;93899.22;4913989;29;20203;-96
2022/08/21 15:51:48;;;;;;;2.33;1.77;;;;;;;26.77;38.15;93898.63;4931832;29;20202;-94
2022/08/21 15:54:34;;;;;;;3.50;2.50;;;;;;;26.30;37.70;93893.75;4921506;29;20293;-94
2022/08/21 15:57:21;;;;;;;2.10;1.80;;;;;;;26.84;38.63;93897.25;4898366;29;20241;-92
2022/08/21 16:00:13;;;;;;;4.00;1.90;;;;;;;26.66;37.11;93902.09;4924337;29;20234;-94
2022/08/21 16:02:59;;;;;;;4.75;3.60;;;;;;;26.53;37.76;93901.22;4922347;29;20233;-92
2022/08/21 16:05:48;;;;;;;12.52;8.85;;;;;;;26.21;37.68;93901.56;4936253;28;20259;-92
2022/08/21 16:08:33;;;;;;;17.80;11.85;;;;;;;26.16;37.44;93892.16;4932292;28;20198;-94
2022/08/21 16:11:18;;;;;;;8.27;6.13;;;;;;;26.38;37.70;93896.75;4944306;29;20243;-93
2022/08/21 16:14:03;;;;;;;5.85;4.95;;;;;;;26.27;36.75;93892.31;4945100;28;20463;-95
2022/08/21 16:16:48;;;;;;;3.15;2.08;;;;;;;26.34;37.13;93890.97;4920664;29;20254;-92
2022/08/21 16:19:32;;;;;;;4.95;1.90;;;;;;;26.18;37.17;93885.69;4910754;29;20573;-93
2022/08/21 16:22:16;;;;;;;3.90;2.20;;;;;;;25.89;38.80;93889.66;4922957;29;20270;-91
2022/08/21 16:25:00;;;;;;;9.80;4.43;;;;;;;26.11;38.77;93892.78;4907560;29;20298;-93
2022/08/21 16:27:49;;;;;;;12.30;7.90;;;;;;;26.15;37.66;93884.97;4927818;29;20206;-93
2022/08/21 16:30:35;;;;;;;5.60;3.63;;;;;;;26.22;37.12;93890.78;4927800;29;20281;-94
2022/08/21 16:33:26;;;;;;;4.88;2.60;;;;;;;26.04;38.17;93889.16;4923079;29;20209;-94
2022/08/21 16:36:11;;;;;;;2.63;1.85;;;;;;;25.97;37.62;93881.88;4923554;29;20265;-93
2022/08/21 16:38:58;;;;;;;3.63;3.03;;;;;;;25.90;38.13;93883.22;4919621;29;20252;-92
2022/08/21 16:41:47;;;;;;;3.67;2.47;;;;;;;25.62;38.00;93879.94;4915051;29;20231;-93
2022/08/21 16:44:34;;;;;;;2.28;2.03;;;;;;;25.33;38.18;93867.31;4912340;29;20688;-89
2022/08/21 16:47:17;;;;;;;3.78;2.30;;;;;;;25.83;37.46;93875.94;4926758;29;20206;-93
2022/08/21 16:50:05;;;;;;;2.85;2.10;;;;;;;25.43;37.89;93872.50;4921810;29;20285;-88
2022/08/21 16:52:49;;;;;;;3.17;2.05;;;;;;;25.36;37.77;93869.53;4906527;29;20281;-93
2022/08/21 16:55:35;;;;;;;4.28;2.20;;;;;;;25.29;37.83;93862.25;4933483;29;20253;-93
2022/08/21 16:58:28;;;;;;;4.38;2.33;;;;;;;25.53;38.26;93870.47;4923073;29;20210;-91
2022/08/21 17:01:15;;;;;;;2.47;1.98;;;;;;;25.27;39.04;93865.06;4908440;29;20273;-93
2022/08/21 17:03:59;;;;;;;2.95;2.05;;;;;;;25.12;38.69;93860.53;4920620;29;20210;-92
2022/08/21 17:06:44;;;;;;;3.70;2.20;;;;;;;24.96;39.20;93866.00;4920937;29;20194;-92
2022/08/21 17:09:28;;;;;;;3.05;1.70;;;;;;;25.11;39.73;93859.09;4943190;29;20230;-93
2022/08/21 17:12:13;;;;;;;4.55;2.03;;;;;;;25.08;38.43;93866.22;4908632;29;20258;-92
2022/08/21 17:15:04;;;;;;;4.57;1.95;;;;;;;24.90;39.70;93866.63;4936140;29;20251;-92
2022/08/21 17:17:51;;;;;;;2.53;2.33;;;;;;;24.75;39.75;93872.81;4913851;29;20309;-93
2022/08/21 17:20:35;;;;;;;3.03;2.10;;;;;;;24.77;41.22;93872.81;4913950;29;20229;-92
2022/08/21 17:23:20;;;;;;;3.45;2.30;;;;;;;24.66;40.76;93856.88;4912343;29;20211;-93
2022/08/21 17:26:05;;;;;;;2.75;1.73;;;;;;;24.51;41.73;93875.94;4910685;29;20210;-93
2022/08/21 17:28:49;;;;;;;3.17;1.92;;;;;;;24.42;41.16;93874.34;4917875;29;20260;-92
2022/08/21 17:31:33;;;;;;;4.05;2.05;;;;;;;24.28;41.50;93874.09;4917933;29;20206;-91
2022/08/21 17:34:17;;;;;;;3.10;2.00;;;;;;;24.06;41.41;93862.91;4909411;29;20206;-93
2022/08/21 17:37:02;;;;;;;3.25;2.30;;;;;;;24.08;42.37;93868.66;4906012;29;20213;-94
2022/08/21 17:39:47;;;;;;;2.90;1.88;;;;;;;24.08;42.08;93865.78;4921675;29;20557;-94
2022/08/21 17:42:32;;;;;;;3.95;2.55;;;;;;;23.99;42.43;93858.47;4920531;29;20691;-94
2022/08/21 17:45:18;;;;;;;2.85;2.00;;;;;;;23.66;43.05;93862.78;4925950;29;20202;-94
2022/08/21 17:48:03;;;;;;;3.33;2.20;;;;;;;23.48;43.41;93868.84;4929243;29;20225;-95
2022/08/21 17:50:47;;;;;;;2.85;1.90;;;;;;;23.17;45.67;93866.66;4924815;29;20216;-94
2022/08/21 17:53:33;;;;;;;7.00;2.20;;;;;;;22.83;47.71;93869.44;4910872;29;20207;-95
2022/08/21 17:56:19;;;;;;;6.53;2.58;;;;;;;22.43;51.38;93883.38;4933692;29;20679;-94
2022/08/21 17:59:05;;;;;;;6.15;2.72;;;;;;;22.04;53.41;93876.63;4925184;29;20288;-95
2022/08/21 18:01:50;;;;;;;3.60;2.40;;;;;;;21.82;54.53;93872.41;4930711;29;20777;-93
2022/08/21 18:04:36;;;;;;;4.18;2.20;;;;;;;21.61;56.27;93871.09;4929558;29;20285;-94
2022/08/21 18:07:20;;;;;;;11.07;2.75;;;;;;;21.24;59.41;93870.00;4938207;29;20202;-94
2022/08/21 18:10:10;;;;;;;5.25;2.75;;;;;;;21.03;60.02;93879.28;4908587;29;20226;-94
2022/08/21 18:12:54;;;;;;;5.07;2.60;;;;;;;20.69;61.94;93886.72;4904028;29;20211;-92
2022/08/21 18:15:42;;;;;;;5.57;2.90;;;;;;;20.41;63.11;93878.69;4930610;29;20213;-95
2022/08/21 18:18:41;;;;;;;5.05;2.72;;;;;;;20.28;63.58;93885.34;4916350;29;20284;-93
2022/08/21 18:21:27;;;;;;;2.70;2.25;;;;;;;19.96;64.90;93887.03;4923447;29;20226;-95
2022/08/21 18:24:11;;;;;;;5.70;2.40;;;;;;;19.79;65.48;93892.16;4900323;29;20206;-94
2022/08/21 18:26:57;;;;;;;2.78;2.40;;;;;;;19.65;65.16;93900.16;4940771;29;20209;-94
2022/08/21 18:29:43;;;;;;;4.82;2.78;;;;;;;19.57;64.96;93896.25;4939130;29;20305;-94
2022/08/21 18:32:28;;;;;;;3.55;2.28;;;;;;;19.47;65.03;93899.47;4909767;29;20213;-92
2022/08/21 18:35:15;;;;;;;4.05;2.90;;;;;;;19.24;66.45;93905.66;4909545;29;20237;-93
2022/08/21 18:37:59;;;;;;;6.80;2.72;;;;;;;19.08;66.83;93905.00;4909956;29;20241;-93
2022/08/21 18:40:48;;;;;;;4.35;2.80;;;;;;;18.93;66.66;93904.47;4904211;29;20229;-93
2022/08/21 18:43:33;;;;;;;4.37;2.77;;;;;;;18.79;67.06;93906.72;4922784;29;20755;-94
2022/08/21 18:46:18;;;;;;;3.83;2.85;;;;;;;18.65;67.74;93900.47;4929605;29;20222;-94
2022/08/21 18:49:06;;;;;;;3.40;2.60;;;;;;;18.46;68.10;93901.81;4936659;29;20205;-95
2022/08/21 18:51:50;;;;;;;4.25;2.60;;;;;;;18.30;68.32;93911.75;4909106;29;20206;-94
2022/08/21 18:54:34;;;;;;;4.10;2.72;;;;;;;18.22;68.82;93905.72;4911879;29;20206;-95
2022/08/21 18:57:18;;;;;;;4.47;2.77;;;;;;;17.95;70.30;93907.44;4940665;29;20652;-94
2022/08/21 19:00:13;;;;;;;8.57;2.90;;;;;;;17.99;70.02;93912.56;4930934;29;20221;-93
2022/08/21 19:02:58;;;;;;;4.70;2.63;;;;;;;17.89;69.73;93915.69;4917798;29;20199;-95
2022/08/21 19:05:44;;;;;;;4.37;2.57;;;;;;;17.85;69.73;93915.50;4917098;29;20207;-94
